sensor_id;sensor_type;location;lat;lon;timestamp;pressure;altitude;pressure_sealevel;temperature;humidity
3254;BME280;1639;42.804;23.342;2023-03-01T00:01:07;74227.88;;;-148.52;100.00
3254;BME280;1639;42.804;23.342;2023-03-01T00:03:33;74211.31;;;-148.52;100.00
3254;BME280;1639;42.804;23.342;2023-03-01T00:05:59;74209.25;;;-148.52;100.00
3254;BME280;1639;42.804;23.342;2023-03-01T00:08:26;74205.13;;;-148.52;100.00
3254;BME280;1639;42.804;23.342;2023-03-01T00:11:12;74196.84;;;-148.52;100.00
3254;BME280;1639;42.804;23.342;2023-03-01T00:13:38;74188.56;;;-148.52;100.00
3254;BME280;1639;42.804;23.342;2023-03-01T00:16:06;74205.13;;;-148.52;100.00
3254;BME280;1639;42.804;23.342;2023-03-01T00:18:32;74211.31;;;-148.52;100.00
3254;BME280;1639;42.804;23.342;2023-03-01T00:20:58;74213.41;;;-148.52;100.00
3254;BME280;1639;42.804;23.342;2023-03-01T00:23:24;74200.97;;;-148.52;100.00
3254;BME280;1639;42.804;23.342;2023-03-01T00:25:50;74205.13;;;-148.52;100.00
3254;BME280;1639;42.804;23.342;2023-03-01T00:28:17;74200.97;;;-148.52;100.00
3254;BME280;1639;42.804;23.342;2023-03-01T00:30:42;74200.97;;;-148.52;100.00
3254;BME280;1639;42.804;23.342;2023-03-01T00:33:08;74198.91;;;-148.52;100.00
3254;BME280;1639;42.804;23.342;2023-03-01T00:35:33;74178.22;;;-148.52;100.00
3254;BME280;1639;42.804;23.342;2023-03-01T00:37:59;74196.84;;;-148.52;100.00
3254;BME280;1639;42.804;23.342;2023-03-01T00:40:25;74198.91;;;-148.52;100.00
3254;BME280;1639;42.804;23.342;2023-03-01T00:42:51;74205.13;;;-148.52;100.00
3254;BME280;1639;42.804;23.342;2023-03-01T00:45:17;74200.97;;;-148.52;100.00
3254;BME280;1639;42.804;23.342;2023-03-01T00:47:42;74182.38;;;-148.52;100.00
3254;BME280;1639;42.804;23.342;2023-03-01T00:50:09;74211.31;;;-148.52;100.00
3254;BME280;1639;42.804;23.342;2023-03-01T00:52:35;74196.84;;;-148.52;100.00
3254;BME280;1639;42.804;23.342;2023-03-01T00:55:00;74221.66;;;-148.52;100.00
3254;BME280;1639;42.804;23.342;2023-03-01T00:57:25;74215.47;;;-148.52;100.00
3254;BME280;1639;42.804;23.342;2023-03-01T00:59:51;74209.25;;;-148.52;100.00
3254;BME280;1639;42.804;23.342;2023-03-01T01:02:18;74186.50;;;-148.52;100.00
3254;BME280;1639;42.804;23.342;2023-03-01T01:04:43;74174.09;;;-148.52;100.00
3254;BME280;1639;42.804;23.342;2023-03-01T01:07:09;74178.22;;;-148.52;100.00
3254;BME280;1639;42.804;23.342;2023-03-01T01:09:34;74186.50;;;-148.52;100.00
3254;BME280;1639;42.804;23.342;2023-03-01T01:12:00;74165.81;;;-148.52;100.00
3254;BME280;1639;42.804;23.342;2023-03-01T01:14:25;74159.59;;;-148.52;100.00
3254;BME280;1639;42.804;23.342;2023-03-01T01:16:51;74151.34;;;-148.52;100.00
3254;BME280;1639;42.804;23.342;2023-03-01T01:19:16;74155.47;;;-148.52;100.00
3254;BME280;1639;42.804;23.342;2023-03-01T01:21:42;74159.59;;;-148.52;100.00
3254;BME280;1639;42.804;23.342;2023-03-01T01:24:11;74147.19;;;-148.52;100.00
3254;BME280;1639;42.804;23.342;2023-03-01T01:26:36;74147.19;;;-148.52;100.00
3254;BME280;1639;42.804;23.342;2023-03-01T01:29:03;74157.53;;;-148.52;100.00
3254;BME280;1639;42.804;23.342;2023-03-01T01:31:29;74159.59;;;-148.52;100.00
3254;BME280;1639;42.804;23.342;2023-03-01T01:33:55;74159.59;;;-148.52;100.00
3254;BME280;1639;42.804;23.342;2023-03-01T01:36:22;74174.09;;;-148.52;100.00
3254;BME280;1639;42.804;23.342;2023-03-01T01:38:47;74157.53;;;-148.52;100.00
3254;BME280;1639;42.804;23.342;2023-03-01T01:41:13;74157.53;;;-148.52;100.00
3254;BME280;1639;42.804;23.342;2023-03-01T01:43:48;74169.94;;;-148.52;100.00
3254;BME280;1639;42.804;23.342;2023-03-01T01:46:32;74153.41;;;-148.52;100.00
3254;BME280;1639;42.804;23.342;2023-03-01T01:49:23;74149.25;;;-148.52;100.00
3254;BME280;1639;42.804;23.342;2023-03-01T01:51:53;74176.16;;;-148.52;100.00
3254;BME280;1639;42.804;23.342;2023-03-01T01:54:22;74134.78;;;-148.52;100.00
3254;BME280;1639;42.804;23.342;2023-03-01T01:56:58;74159.59;;;-148.52;100.00
3254;BME280;1639;42.804;23.342;2023-03-01T01:59:28;74151.34;;;-148.52;100.00
3254;BME280;1639;42.804;23.342;2023-03-01T02:01:54;74167.88;;;-148.52;100.00
3254;BME280;1639;42.804;23.342;2023-03-01T02:04:20;74174.09;;;-148.52;100.00
3254;BME280;1639;42.804;23.342;2023-03-01T02:06:51;74176.16;;;-148.52;100.00
3254;BME280;1639;42.804;23.342;2023-03-01T02:09:20;74200.97;;;-148.52;100.00
3254;BME280;1639;42.804;23.342;2023-03-01T02:11:49;74192.72;;;-148.52;100.00
3254;BME280;1639;42.804;23.342;2023-03-01T02:14:16;74182.38;;;-148.52;100.00
3254;BME280;1639;42.804;23.342;2023-03-01T02:16:41;74169.94;;;-148.52;100.00
3254;BME280;1639;42.804;23.342;2023-03-01T02:19:10;74180.28;;;-148.52;100.00
3254;BME280;1639;42.804;23.342;2023-03-01T02:22:03;74184.44;;;-148.52;100.00
3254;BME280;1639;42.804;23.342;2023-03-01T02:24:42;74188.56;;;-148.52;100.00
3254;BME280;1639;42.804;23.342;2023-03-01T02:27:10;74178.22;;;-148.52;100.00
3254;BME280;1639;42.804;23.342;2023-03-01T02:29:36;74190.63;;;-148.52;100.00
3254;BME280;1639;42.804;23.342;2023-03-01T02:32:02;74200.97;;;-148.52;100.00
3254;BME280;1639;42.804;23.342;2023-03-01T02:34:30;74188.56;;;-148.52;100.00
3254;BME280;1639;42.804;23.342;2023-03-01T02:37:00;74186.50;;;-148.52;100.00
3254;BME280;1639;42.804;23.342;2023-03-01T02:39:42;74180.28;;;-148.52;100.00
3254;BME280;1639;42.804;23.342;2023-03-01T02:42:13;74184.44;;;-148.52;100.00
3254;BME280;1639;42.804;23.342;2023-03-01T02:44:40;74186.50;;;-148.52;100.00
3254;BME280;1639;42.804;23.342;2023-03-01T02:47:05;74184.44;;;-148.52;100.00
3254;BME280;1639;42.804;23.342;2023-03-01T02:49:34;74196.84;;;-148.52;100.00
3254;BME280;1639;42.804;23.342;2023-03-01T02:54:39;74194.78;;;-148.52;100.00
3254;BME280;1639;42.804;23.342;2023-03-01T02:57:05;74180.28;;;-148.52;100.00
3254;BME280;1639;42.804;23.342;2023-03-01T02:59:33;74176.16;;;-148.52;100.00
3254;BME280;1639;42.804;23.342;2023-03-01T03:02:07;74196.84;;;-148.52;100.00
3254;BME280;1639;42.804;23.342;2023-03-01T03:04:33;74203.06;;;-148.52;100.00
3254;BME280;1639;42.804;23.342;2023-03-01T03:06:58;74200.97;;;-148.52;100.00
3254;BME280;1639;42.804;23.342;2023-03-01T03:09:24;74205.13;;;-148.52;100.00
3254;BME280;1639;42.804;23.342;2023-03-01T03:11:49;74215.47;;;-148.52;100.00
3254;BME280;1639;42.804;23.342;2023-03-01T03:14:16;74203.06;;;-148.52;100.00
3254;BME280;1639;42.804;23.342;2023-03-01T03:16:44;74207.19;;;-148.52;100.00
3254;BME280;1639;42.804;23.342;2023-03-01T03:19:10;74211.31;;;-148.52;100.00
3254;BME280;1639;42.804;23.342;2023-03-01T03:21:37;74209.25;;;-148.52;100.00
3254;BME280;1639;42.804;23.342;2023-03-01T03:24:03;74209.25;;;-148.52;100.00
3254;BME280;1639;42.804;23.342;2023-03-01T03:26:28;74221.66;;;-148.52;100.00
3254;BME280;1639;42.804;23.342;2023-03-01T03:28:54;74229.94;;;-148.52;100.00
3254;BME280;1639;42.804;23.342;2023-03-01T03:31:20;74229.94;;;-148.52;100.00
3254;BME280;1639;42.804;23.342;2023-03-01T03:33:45;74229.94;;;-148.52;100.00
3254;BME280;1639;42.804;23.342;2023-03-01T03:36:15;74242.38;;;-148.52;100.00
3254;BME280;1639;42.804;23.342;2023-03-01T03:38:43;74225.81;;;-148.52;100.00
3254;BME280;1639;42.804;23.342;2023-03-01T03:41:09;74223.75;;;-148.52;100.00
3254;BME280;1639;42.804;23.342;2023-03-01T03:43:53;74225.81;;;-148.52;100.00
3254;BME280;1639;42.804;23.342;2023-03-01T03:49:02;74246.50;;;-148.52;100.00
3254;BME280;1639;42.804;23.342;2023-03-01T03:51:28;74236.16;;;-148.52;100.00
3254;BME280;1639;42.804;23.342;2023-03-01T03:53:53;74250.63;;;-148.52;100.00
3254;BME280;1639;42.804;23.342;2023-03-01T03:59:21;74277.53;;;-148.52;100.00
3254;BME280;1639;42.804;23.342;2023-03-01T04:04:48;74271.31;;;-148.52;100.00
3254;BME280;1639;42.804;23.342;2023-03-01T04:07:15;74267.19;;;-148.52;100.00
3254;BME280;1639;42.804;23.342;2023-03-01T04:09:41;74271.31;;;-148.52;100.00
3254;BME280;1639;42.804;23.342;2023-03-01T04:12:08;74271.31;;;-148.52;100.00
3254;BME280;1639;42.804;23.342;2023-03-01T04:14:33;74269.25;;;-148.52;100.00
3254;BME280;1639;42.804;23.342;2023-03-01T04:16:59;74265.13;;;-148.52;100.00
3254;BME280;1639;42.804;23.342;2023-03-01T04:19:24;74269.25;;;-148.52;100.00
3254;BME280;1639;42.804;23.342;2023-03-01T04:21:49;74279.59;;;-148.52;100.00
3254;BME280;1639;42.804;23.342;2023-03-01T04:24:15;74258.91;;;-148.52;100.00
3254;BME280;1639;42.804;23.342;2023-03-01T04:26:40;74254.78;;;-148.52;100.00
3254;BME280;1639;42.804;23.342;2023-03-01T04:29:06;74267.19;;;-148.52;100.00
3254;BME280;1639;42.804;23.342;2023-03-01T04:31:31;74267.19;;;-148.52;100.00
3254;BME280;1639;42.804;23.342;2023-03-01T04:33:57;74271.31;;;-148.52;100.00
3254;BME280;1639;42.804;23.342;2023-03-01T04:36:25;74275.47;;;-148.52;100.00
3254;BME280;1639;42.804;23.342;2023-03-01T04:38:51;74263.03;;;-148.52;100.00
3254;BME280;1639;42.804;23.342;2023-03-01T04:41:19;74263.03;;;-148.52;100.00
3254;BME280;1639;42.804;23.342;2023-03-01T04:43:45;74252.69;;;-148.52;100.00
3254;BME280;1639;42.804;23.342;2023-03-01T04:46:13;74267.19;;;-148.52;100.00
3254;BME280;1639;42.804;23.342;2023-03-01T04:48:41;74252.69;;;-148.52;100.00
3254;BME280;1639;42.804;23.342;2023-03-01T04:51:07;74246.50;;;-148.52;100.00
3254;BME280;1639;42.804;23.342;2023-03-01T04:53:34;74236.16;;;-148.52;100.00
3254;BME280;1639;42.804;23.342;2023-03-01T04:56:02;74246.50;;;-148.52;100.00
3254;BME280;1639;42.804;23.342;2023-03-01T04:58:27;74225.81;;;-148.52;100.00
3254;BME280;1639;42.804;23.342;2023-03-01T05:00:53;74232.00;;;-148.52;100.00
3254;BME280;1639;42.804;23.342;2023-03-01T05:03:20;74225.81;;;-148.52;100.00
3254;BME280;1639;42.804;23.342;2023-03-01T05:05:47;74248.56;;;-148.52;100.00
3254;BME280;1639;42.804;23.342;2023-03-01T05:08:13;74225.81;;;-148.52;100.00
3254;BME280;1639;42.804;23.342;2023-03-01T05:10:50;74223.75;;;-148.52;100.00
3254;BME280;1639;42.804;23.342;2023-03-01T05:13:17;74232.00;;;-148.52;100.00
3254;BME280;1639;42.804;23.342;2023-03-01T05:15:54;74225.81;;;-148.52;100.00
3254;BME280;1639;42.804;23.342;2023-03-01T05:18:20;74219.59;;;-148.52;100.00
3254;BME280;1639;42.804;23.342;2023-03-01T05:20:45;74223.75;;;-148.52;100.00
3254;BME280;1639;42.804;23.342;2023-03-01T05:23:11;74205.13;;;-148.52;100.00
3254;BME280;1639;42.804;23.342;2023-03-01T05:25:37;74200.97;;;-148.52;100.00
3254;BME280;1639;42.804;23.342;2023-03-01T05:28:06;74192.72;;;-148.52;100.00
3254;BME280;1639;42.804;23.342;2023-03-01T05:30:33;74213.41;;;-148.52;100.00
3254;BME280;1639;42.804;23.342;2023-03-01T05:32:59;74240.28;;;-148.52;100.00
3254;BME280;1639;42.804;23.342;2023-03-01T05:35:24;74244.44;;;-148.52;100.00
3254;BME280;1639;42.804;23.342;2023-03-01T05:37:50;74234.09;;;-148.52;100.00
3254;BME280;1639;42.804;23.342;2023-03-01T05:40:19;74227.88;;;-148.52;100.00
3254;BME280;1639;42.804;23.342;2023-03-01T05:42:50;74213.41;;;-148.52;100.00
3254;BME280;1639;42.804;23.342;2023-03-01T05:45:17;74221.66;;;-148.52;100.00
3254;BME280;1639;42.804;23.342;2023-03-01T05:47:45;74209.25;;;-148.52;100.00
3254;BME280;1639;42.804;23.342;2023-03-01T05:50:19;74205.13;;;-148.52;100.00
3254;BME280;1639;42.804;23.342;2023-03-01T05:52:47;74211.31;;;-148.52;100.00
3254;BME280;1639;42.804;23.342;2023-03-01T05:55:14;74219.59;;;-148.52;100.00
3254;BME280;1639;42.804;23.342;2023-03-01T05:57:39;74242.38;;;-148.52;100.00
3254;BME280;1639;42.804;23.342;2023-03-01T06:00:05;74221.66;;;-148.52;100.00
3254;BME280;1639;42.804;23.342;2023-03-01T06:02:31;74223.75;;;-148.52;100.00
3254;BME280;1639;42.804;23.342;2023-03-01T06:04:56;74240.28;;;-148.52;100.00
3254;BME280;1639;42.804;23.342;2023-03-01T06:07:22;74240.28;;;-148.52;100.00
3254;BME280;1639;42.804;23.342;2023-03-01T06:09:47;74229.94;;;-148.52;100.00
3254;BME280;1639;42.804;23.342;2023-03-01T06:12:13;74221.66;;;-148.52;100.00
3254;BME280;1639;42.804;23.342;2023-03-01T06:14:38;74229.94;;;-148.52;100.00
3254;BME280;1639;42.804;23.342;2023-03-01T06:17:03;74211.31;;;-148.52;100.00
3254;BME280;1639;42.804;23.342;2023-03-01T06:19:29;74213.41;;;-148.52;100.00
3254;BME280;1639;42.804;23.342;2023-03-01T06:21:54;74211.31;;;-148.52;100.00
3254;BME280;1639;42.804;23.342;2023-03-01T06:24:20;74221.66;;;-148.52;100.00
3254;BME280;1639;42.804;23.342;2023-03-01T06:26:45;74209.25;;;-148.52;100.00
3254;BME280;1639;42.804;23.342;2023-03-01T06:29:10;74221.66;;;-148.52;100.00
3254;BME280;1639;42.804;23.342;2023-03-01T06:31:36;74200.97;;;-148.52;100.00
3254;BME280;1639;42.804;23.342;2023-03-01T06:34:01;74205.13;;;-148.52;100.00
3254;BME280;1639;42.804;23.342;2023-03-01T06:36:27;74196.84;;;-148.52;100.00
3254;BME280;1639;42.804;23.342;2023-03-01T06:38:52;74211.31;;;-148.52;100.00
3254;BME280;1639;42.804;23.342;2023-03-01T06:41:18;74209.25;;;-148.52;100.00
3254;BME280;1639;42.804;23.342;2023-03-01T06:43:43;74209.25;;;-148.52;100.00
3254;BME280;1639;42.804;23.342;2023-03-01T06:46:09;74217.53;;;-148.52;100.00
3254;BME280;1639;42.804;23.342;2023-03-01T06:48:34;74223.75;;;-148.52;100.00
3254;BME280;1639;42.804;23.342;2023-03-01T06:51:00;74215.47;;;-148.52;100.00
3254;BME280;1639;42.804;23.342;2023-03-01T06:53:29;74238.22;;;-148.52;100.00
3254;BME280;1639;42.804;23.342;2023-03-01T06:55:55;74223.75;;;-148.52;100.00
3254;BME280;1639;42.804;23.342;2023-03-01T06:58:21;74225.81;;;-148.52;100.00
3254;BME280;1639;42.804;23.342;2023-03-01T07:00:46;74219.59;;;-148.52;100.00
3254;BME280;1639;42.804;23.342;2023-03-01T07:03:12;74207.19;;;-148.52;100.00
3254;BME280;1639;42.804;23.342;2023-03-01T07:05:37;74188.56;;;-148.52;100.00
3254;BME280;1639;42.804;23.342;2023-03-01T07:08:02;74182.38;;;-148.52;100.00
3254;BME280;1639;42.804;23.342;2023-03-01T07:10:28;74184.44;;;-148.52;100.00
3254;BME280;1639;42.804;23.342;2023-03-01T07:12:57;74143.06;;;-148.52;100.00
3254;BME280;1639;42.804;23.342;2023-03-01T07:15:23;74118.22;;;-148.52;100.00
3254;BME280;1639;42.804;23.342;2023-03-01T07:17:49;74118.22;;;-148.52;100.00
3254;BME280;1639;42.804;23.342;2023-03-01T07:20:16;74136.84;;;-148.52;100.00
3254;BME280;1639;42.804;23.342;2023-03-01T07:22:42;74147.19;;;-148.52;100.00
3254;BME280;1639;42.804;23.342;2023-03-01T07:25:09;74157.53;;;-148.52;100.00
3254;BME280;1639;42.804;23.342;2023-03-01T07:27:34;74157.53;;;-148.52;100.00
3254;BME280;1639;42.804;23.342;2023-03-01T07:30:00;74151.34;;;-148.52;100.00
3254;BME280;1639;42.804;23.342;2023-03-01T07:32:26;74138.91;;;-148.52;100.00
3254;BME280;1639;42.804;23.342;2023-03-01T07:34:51;74167.88;;;-148.52;100.00
3254;BME280;1639;42.804;23.342;2023-03-01T07:37:17;74182.38;;;-148.52;100.00
3254;BME280;1639;42.804;23.342;2023-03-01T07:39:42;74172.03;;;-148.52;100.00
3254;BME280;1639;42.804;23.342;2023-03-01T07:42:08;74151.34;;;-148.52;100.00
3254;BME280;1639;42.804;23.342;2023-03-01T07:44:33;74167.88;;;-148.52;100.00
3254;BME280;1639;42.804;23.342;2023-03-01T07:47:03;74155.47;;;-148.52;100.00
3254;BME280;1639;42.804;23.342;2023-03-01T07:49:29;74136.84;;;-148.52;100.00
3254;BME280;1639;42.804;23.342;2023-03-01T07:51:54;74130.66;;;-148.52;100.00
3254;BME280;1639;42.804;23.342;2023-03-01T07:54:20;74145.13;;;-148.52;100.00
3254;BME280;1639;42.804;23.342;2023-03-01T07:56:45;74128.56;;;-148.52;100.00
3254;BME280;1639;42.804;23.342;2023-03-01T07:59:11;74103.75;;;-148.52;100.00
3254;BME280;1639;42.804;23.342;2023-03-01T08:01:36;74099.59;;;-148.52;100.00
3254;BME280;1639;42.804;23.342;2023-03-01T08:04:02;74101.69;;;-148.52;100.00
3254;BME280;1639;42.804;23.342;2023-03-01T08:06:27;74097.53;;;-148.52;100.00
3254;BME280;1639;42.804;23.342;2023-03-01T08:08:53;74107.88;;;-148.52;100.00
3254;BME280;1639;42.804;23.342;2023-03-01T08:11:20;74091.34;;;-148.52;100.00
3254;BME280;1639;42.804;23.342;2023-03-01T08:13:47;74074.78;;;-148.52;100.00
3254;BME280;1639;42.804;23.342;2023-03-01T08:16:15;74081.00;;;-148.52;100.00
3254;BME280;1639;42.804;23.342;2023-03-01T08:18:41;74087.19;;;-148.52;100.00
3254;BME280;1639;42.804;23.342;2023-03-01T08:21:13;74064.44;;;-148.52;100.00
3254;BME280;1639;42.804;23.342;2023-03-01T08:23:39;74049.97;;;-148.52;100.00
3254;BME280;1639;42.804;23.342;2023-03-01T08:26:19;74047.88;;;-148.52;100.00
3254;BME280;1639;42.804;23.342;2023-03-01T08:28:46;74035.47;;;-148.52;100.00
3254;BME280;1639;42.804;23.342;2023-03-01T08:33:58;74047.88;;;-148.52;100.00
3254;BME280;1639;42.804;23.342;2023-03-01T08:36:30;74049.97;;;-148.52;100.00
3254;BME280;1639;42.804;23.342;2023-03-01T08:38:56;74039.63;;;-148.52;100.00
3254;BME280;1639;42.804;23.342;2023-03-01T08:41:21;74056.16;;;-148.52;100.00
3254;BME280;1639;42.804;23.342;2023-03-01T08:43:47;74049.97;;;-148.52;100.00
3254;BME280;1639;42.804;23.342;2023-03-01T08:46:13;74045.81;;;-148.52;100.00
3254;BME280;1639;42.804;23.342;2023-03-01T08:48:39;74045.81;;;-148.52;100.00
3254;BME280;1639;42.804;23.342;2023-03-01T08:51:24;74037.53;;;-148.52;100.00
3254;BME280;1639;42.804;23.342;2023-03-01T08:53:50;74037.53;;;-148.52;100.00
3254;BME280;1639;42.804;23.342;2023-03-01T08:56:17;74043.75;;;-148.52;100.00
3254;BME280;1639;42.804;23.342;2023-03-01T08:58:44;74039.63;;;-148.52;100.00
3254;BME280;1639;42.804;23.342;2023-03-01T09:01:11;74035.47;;;-148.52;100.00
3254;BME280;1639;42.804;23.342;2023-03-01T09:03:38;74039.63;;;-148.52;100.00
3254;BME280;1639;42.804;23.342;2023-03-01T09:06:04;74035.47;;;-148.52;100.00
3254;BME280;1639;42.804;23.342;2023-03-01T09:08:31;74025.13;;;-148.52;100.00
3254;BME280;1639;42.804;23.342;2023-03-01T09:11:02;74025.13;;;-148.52;100.00
3254;BME280;1639;42.804;23.342;2023-03-01T09:13:28;74006.53;;;-148.52;100.00
3254;BME280;1639;42.804;23.342;2023-03-01T09:15:56;74006.53;;;-148.52;100.00
3254;BME280;1639;42.804;23.342;2023-03-01T09:18:21;73992.03;;;-148.52;100.00
3254;BME280;1639;42.804;23.342;2023-03-01T09:20:47;73985.81;;;-148.52;100.00
3254;BME280;1639;42.804;23.342;2023-03-01T09:23:12;73985.81;;;-148.52;100.00
3254;BME280;1639;42.804;23.342;2023-03-01T09:25:38;73983.75;;;-148.52;100.00
3254;BME280;1639;42.804;23.342;2023-03-01T09:28:03;74008.59;;;-148.52;100.00
3254;BME280;1639;42.804;23.342;2023-03-01T09:30:29;74002.38;;;-148.52;100.00
3254;BME280;1639;42.804;23.342;2023-03-01T09:32:56;74000.31;;;-148.52;100.00
3254;BME280;1639;42.804;23.342;2023-03-01T09:35:22;73969.28;;;-148.52;100.00
3254;BME280;1639;42.804;23.342;2023-03-01T09:37:48;73987.91;;;-148.52;100.00
3254;BME280;1639;42.804;23.342;2023-03-01T09:40:18;73963.06;;;-148.52;100.00
3254;BME280;1639;42.804;23.342;2023-03-01T09:45:47;73925.84;;;-148.52;100.00
3254;BME280;1639;42.804;23.342;2023-03-01T09:48:18;73940.31;;;-148.52;100.00
3254;BME280;1639;42.804;23.342;2023-03-01T09:50:47;73919.63;;;-148.52;100.00
3254;BME280;1639;42.804;23.342;2023-03-01T09:53:16;73915.50;;;-148.52;100.00
3254;BME280;1639;42.804;23.342;2023-03-01T09:55:51;73915.50;;;-148.52;100.00
3254;BME280;1639;42.804;23.342;2023-03-01T10:00:49;73909.28;;;-148.52;100.00
3254;BME280;1639;42.804;23.342;2023-03-01T10:03:34;73907.22;;;-148.52;100.00
3254;BME280;1639;42.804;23.342;2023-03-01T10:06:10;73894.81;;;-148.52;100.00
3254;BME280;1639;42.804;23.342;2023-03-01T10:08:54;73894.81;;;-148.52;100.00
3254;BME280;1639;42.804;23.342;2023-03-01T10:11:31;73882.41;;;-148.52;100.00
3254;BME280;1639;42.804;23.342;2023-03-01T10:14:07;73901.00;;;-148.52;100.00
3254;BME280;1639;42.804;23.342;2023-03-01T10:19:46;73880.31;;;-148.52;100.00
3254;BME280;1639;42.804;23.342;2023-03-01T10:22:24;73867.91;;;-148.52;100.00
3254;BME280;1639;42.804;23.342;2023-03-01T10:24:54;73861.72;;;-148.52;100.00
3254;BME280;1639;42.804;23.342;2023-03-01T10:27:34;73857.56;;;-148.52;100.00
3254;BME280;1639;42.804;23.342;2023-03-01T10:30:29;73874.13;;;-148.52;100.00
3254;BME280;1639;42.804;23.342;2023-03-01T10:32:57;73859.63;;;-148.52;100.00
3254;BME280;1639;42.804;23.342;2023-03-01T10:35:27;73851.38;;;-148.52;100.00
3254;BME280;1639;42.804;23.342;2023-03-01T10:38:06;73841.03;;;-148.52;100.00
3254;BME280;1639;42.804;23.342;2023-03-01T10:40:34;73855.50;;;-148.52;100.00
3254;BME280;1639;42.804;23.342;2023-03-01T10:43:03;73849.28;;;-148.52;100.00
3254;BME280;1639;42.804;23.342;2023-03-01T10:48:24;73824.47;;;-148.52;100.00
3254;BME280;1639;42.804;23.342;2023-03-01T10:51:05;73838.94;;;-148.52;100.00
3254;BME280;1639;42.804;23.342;2023-03-01T10:53:37;73857.56;;;-148.52;100.00
3254;BME280;1639;42.804;23.342;2023-03-01T10:56:07;73849.28;;;-148.52;100.00
3254;BME280;1639;42.804;23.342;2023-03-01T10:58:35;73836.88;;;-148.52;100.00
3254;BME280;1639;42.804;23.342;2023-03-01T11:01:23;73845.16;;;-148.52;100.00
3254;BME280;1639;42.804;23.342;2023-03-01T11:04:19;73849.28;;;-148.52;100.00
3254;BME280;1639;42.804;23.342;2023-03-01T11:06:58;73826.53;;;-148.52;100.00
3254;BME280;1639;42.804;23.342;2023-03-01T11:09:24;73830.69;;;-148.52;100.00
3254;BME280;1639;42.804;23.342;2023-03-01T11:11:57;73845.16;;;-148.52;100.00
3254;BME280;1639;42.804;23.342;2023-03-01T11:14:23;73832.75;;;-148.52;100.00
3254;BME280;1639;42.804;23.342;2023-03-01T11:23:12;73824.47;;;-148.52;100.00
3254;BME280;1639;42.804;23.342;2023-03-01T11:25:44;73816.19;;;-148.52;100.00
3254;BME280;1639;42.804;23.342;2023-03-01T11:28:16;73816.19;;;-148.52;100.00
3254;BME280;1639;42.804;23.342;2023-03-01T11:30:53;73826.53;;;-148.52;100.00
3254;BME280;1639;42.804;23.342;2023-03-01T11:33:45;73830.69;;;-148.52;100.00
3254;BME280;1639;42.804;23.342;2023-03-01T11:36:21;73814.13;;;-148.52;100.00
3254;BME280;1639;42.804;23.342;2023-03-01T11:38:49;73820.34;;;-148.52;100.00
3254;BME280;1639;42.804;23.342;2023-03-01T11:41:18;73826.53;;;-148.52;100.00
3254;BME280;1639;42.804;23.342;2023-03-01T11:44:03;73830.69;;;-148.52;100.00
3254;BME280;1639;42.804;23.342;2023-03-01T11:52:02;73812.06;;;-148.52;100.00
3254;BME280;1639;42.804;23.342;2023-03-01T11:58:05;73820.34;;;-148.52;100.00
3254;BME280;1639;42.804;23.342;2023-03-01T12:04:13;73778.97;;;-148.52;100.00
3254;BME280;1639;42.804;23.342;2023-03-01T12:12:31;73801.72;;;-148.52;100.00
3254;BME280;1639;42.804;23.342;2023-03-01T12:20:46;73816.19;;;-148.52;100.00
3254;BME280;1639;42.804;23.342;2023-03-01T12:23:45;73826.53;;;-148.52;100.00
3254;BME280;1639;42.804;23.342;2023-03-01T12:26:34;73824.47;;;-148.52;100.00
3254;BME280;1639;42.804;23.342;2023-03-01T12:29:24;73816.19;;;-148.52;100.00
3254;BME280;1639;42.804;23.342;2023-03-01T12:38:01;73797.59;;;-148.52;100.00
3254;BME280;1639;42.804;23.342;2023-03-01T12:46:14;73793.44;;;-148.52;100.00
3254;BME280;1639;42.804;23.342;2023-03-01T12:51:20;73770.69;;;-148.52;100.00
3254;BME280;1639;42.804;23.342;2023-03-01T12:53:49;73756.22;;;-148.52;100.00
3254;BME280;1639;42.804;23.342;2023-03-01T12:56:19;73783.09;;;-148.52;100.00
3254;BME280;1639;42.804;23.342;2023-03-01T13:17:50;73774.81;;;-148.52;100.00
3254;BME280;1639;42.804;23.342;2023-03-01T13:20:18;73768.63;;;-148.52;100.00
3254;BME280;1639;42.804;23.342;2023-03-01T13:22:46;73787.25;;;-148.52;100.00
3254;BME280;1639;42.804;23.342;2023-03-01T13:25:17;73787.25;;;-148.52;100.00
3254;BME280;1639;42.804;23.342;2023-03-01T13:27:44;73776.91;;;-148.52;100.00
3254;BME280;1639;42.804;23.342;2023-03-01T13:35:54;73747.94;;;-148.52;100.00
3254;BME280;1639;42.804;23.342;2023-03-01T13:41:12;73750.00;;;-148.52;100.00
3254;BME280;1639;42.804;23.342;2023-03-01T13:43:43;73750.00;;;-148.52;100.00
3254;BME280;1639;42.804;23.342;2023-03-01T13:46:12;73758.28;;;-148.52;100.00
3254;BME280;1639;42.804;23.342;2023-03-01T13:48:40;73758.28;;;-148.52;100.00
3254;BME280;1639;42.804;23.342;2023-03-01T13:51:09;73774.81;;;-148.52;100.00
3254;BME280;1639;42.804;23.342;2023-03-01T13:53:40;73774.81;;;-148.52;100.00
3254;BME280;1639;42.804;23.342;2023-03-01T13:56:26;73774.81;;;-148.52;100.00
3254;BME280;1639;42.804;23.342;2023-03-01T13:58:59;73768.63;;;-148.52;100.00
3254;BME280;1639;42.804;23.342;2023-03-01T14:01:56;73758.28;;;-148.52;100.00
3254;BME280;1639;42.804;23.342;2023-03-01T14:06:50;73785.16;;;-148.52;100.00
3254;BME280;1639;42.804;23.342;2023-03-01T14:09:21;73778.97;;;-148.52;100.00
3254;BME280;1639;42.804;23.342;2023-03-01T14:14:33;73752.06;;;-148.52;100.00
3254;BME280;1639;42.804;23.342;2023-03-01T14:17:25;73750.00;;;-148.52;100.00
3254;BME280;1639;42.804;23.342;2023-03-01T14:20:00;73764.47;;;-148.52;100.00
3254;BME280;1639;42.804;23.342;2023-03-01T14:22:32;73762.41;;;-148.52;100.00
3254;BME280;1639;42.804;23.342;2023-03-01T14:25:05;73766.56;;;-148.52;100.00
3254;BME280;1639;42.804;23.342;2023-03-01T14:27:39;73762.41;;;-148.52;100.00
3254;BME280;1639;42.804;23.342;2023-03-01T14:30:14;73766.56;;;-148.52;100.00
3254;BME280;1639;42.804;23.342;2023-03-01T14:32:40;73768.63;;;-148.52;100.00